createdAt,value
2024-03-27T00:02:26.659Z,1.3
2024-03-27T00:04:27.856Z,1.4
2024-03-27T00:06:26.084Z,1.6
2024-03-27T00:10:26.780Z,1.3
2024-03-27T00:12:25.477Z,1.4
2024-03-27T00:14:25.256Z,1.6
2024-03-27T00:16:25.144Z,1.4
2024-03-27T00:20:25.184Z,1.6
2024-03-27T00:22:24.934Z,1.3
2024-03-27T00:24:24.484Z,1.2
2024-03-27T00:26:24.256Z,1.4
2024-03-27T00:30:23.903Z,1.3
2024-03-27T00:32:23.965Z,1.5
2024-03-27T00:34:23.499Z,1.4
2024-03-27T00:36:23.630Z,1.5
2024-03-27T00:38:24.064Z,1.2
2024-03-27T00:40:23.193Z,1.3
2024-03-27T00:42:22.723Z,1.5
2024-03-27T00:44:22.523Z,1.1
2024-03-27T00:46:22.037Z,1.6
2024-03-27T00:48:22.044Z,1.4
2024-03-27T00:50:21.543Z,1.3
2024-03-27T00:52:21.495Z,1.1
2024-03-27T00:54:21.223Z,1.0
2024-03-27T00:56:22.662Z,1.1
2024-03-27T00:58:20.977Z,1.0
2024-03-27T01:06:19.723Z,0.9
2024-03-27T01:10:19.891Z,1.0
2024-03-27T01:12:19.692Z,0.9
2024-03-27T01:14:19.033Z,1.0
2024-03-27T01:16:18.777Z,1.3
2024-03-27T01:20:18.172Z,1.1
2024-03-27T01:24:17.595Z,1.3
2024-03-27T01:28:17.023Z,1.4
2024-03-27T01:30:16.777Z,1.8
2024-03-27T01:32:16.530Z,1.2
2024-03-27T01:34:16.168Z,1.7
2024-03-27T01:36:16.002Z,1.5
2024-03-27T01:38:15.773Z,1.8
2024-03-27T01:40:15.539Z,1.7
2024-03-27T01:46:15.573Z,1.9
2024-03-27T01:48:14.937Z,2.1
2024-03-27T01:54:16.604Z,2.0
2024-03-27T01:56:13.898Z,2.1
2024-03-27T01:58:13.831Z,2.2
2024-03-27T02:00:14.480Z,2.1
2024-03-27T02:02:14.241Z,2.5
2024-03-27T02:04:12.438Z,2.2
2024-03-27T02:08:11.841Z,2.6
2024-03-27T02:10:12.038Z,2.5
2024-03-27T02:14:14.474Z,2.7
2024-03-27T02:16:10.815Z,2.9
2024-03-27T02:20:10.720Z,3.2
2024-03-27T02:22:10.065Z,3.3
2024-03-27T02:24:17.667Z,3.5
2024-03-27T02:26:15.506Z,3.6
2024-03-27T02:28:09.389Z,3.7
2024-03-27T02:30:09.436Z,3.3
2024-03-27T02:32:08.533Z,4.2
2024-03-27T02:34:08.410Z,3.0
2024-03-27T02:36:08.120Z,2.5
2024-03-27T02:38:08.074Z,2.1
2024-03-27T02:40:08.023Z,1.9
2024-03-27T02:42:07.594Z,2.2
2024-03-27T02:44:07.365Z,1.8
2024-03-27T02:46:07.151Z,2.2
2024-03-27T02:50:07.535Z,2.0
2024-03-27T02:52:06.289Z,1.9
2024-03-27T02:56:12.912Z,2.0
2024-03-27T02:58:05.321Z,1.8
2024-03-27T03:00:10.932Z,1.5
2024-03-27T03:02:04.838Z,1.6
2024-03-27T03:04:05.587Z,1.3
2024-03-27T03:08:04.328Z,1.5
2024-03-27T03:10:03.822Z,1.4
2024-03-27T03:12:04.332Z,1.3
2024-03-27T03:14:03.619Z,1.4
2024-03-27T03:18:02.878Z,1.3
2024-03-27T03:20:04.532Z,1.4
2024-03-27T03:22:01.858Z,1.5
2024-03-27T03:24:01.538Z,1.3
2024-03-27T03:26:01.419Z,1.6
2024-03-27T03:28:01.122Z,1.8
2024-03-27T03:30:03.146Z,1.6
2024-03-27T03:32:00.514Z,1.8
2024-03-27T03:34:00.230Z,1.6
2024-03-27T03:36:00.794Z,1.7
2024-03-27T03:41:59.258Z,1.6
2024-03-27T03:45:58.670Z,1.5
2024-03-27T03:47:58.417Z,1.9
2024-03-27T03:49:58.012Z,2.0
2024-03-27T03:51:57.793Z,1.9
2024-03-27T03:53:57.497Z,2.1
2024-03-27T03:55:57.258Z,2.0
2024-03-27T03:57:57.265Z,2.1
2024-03-27T03:59:56.675Z,2.2
2024-03-27T04:01:56.348Z,2.6
2024-03-27T04:03:56.169Z,2.4
2024-03-27T04:07:55.880Z,2.7
2024-03-27T04:09:55.284Z,2.9
2024-03-27T04:13:54.868Z,3.7
2024-03-27T04:15:55.025Z,3.2
2024-03-27T04:17:54.691Z,4.0
2024-03-27T04:19:59.391Z,4.1
2024-03-27T04:23:53.244Z,4.4
2024-03-27T04:26:03.782Z,3.9
2024-03-27T04:27:52.828Z,4.4
2024-03-27T04:29:53.562Z,4.7
2024-03-27T04:31:52.197Z,4.0
2024-03-27T04:33:51.633Z,4.1
2024-03-27T04:35:51.296Z,4.0
2024-03-27T04:37:51.128Z,3.8
2024-03-27T04:39:50.656Z,3.7
2024-03-27T04:41:52.600Z,3.6
2024-03-27T04:43:50.195Z,3.9
2024-03-27T04:45:50.007Z,4.0
2024-03-27T04:47:49.530Z,3.8
2024-03-27T04:51:48.987Z,3.9
2024-03-27T04:53:48.591Z,4.0
2024-03-27T04:57:48.105Z,3.6
2024-03-27T04:59:47.777Z,4.1
2024-03-27T05:01:47.324Z,3.9
2024-03-27T05:03:47.449Z,3.5
2024-03-27T05:05:46.752Z,4.1
2024-03-27T05:07:46.413Z,3.7
2024-03-27T05:09:46.266Z,3.9
2024-03-27T05:11:46.060Z,3.5
2024-03-27T05:13:45.923Z,3.8
2024-03-27T05:15:45.206Z,4.2
2024-03-27T05:19:44.950Z,4.0
2024-03-27T05:21:44.306Z,3.9
2024-03-27T05:23:43.978Z,4.1
2024-03-27T05:27:43.402Z,4.7
2024-03-27T05:29:43.103Z,4.4
2024-03-27T05:31:48.549Z,4.5
2024-03-27T05:33:42.469Z,4.3
2024-03-27T05:35:42.206Z,4.6
2024-03-27T05:37:41.677Z,4.8
2024-03-27T05:39:42.464Z,4.4
2024-03-27T05:43:41.201Z,4.2
2024-03-27T05:45:41.216Z,4.1
2024-03-27T05:47:41.829Z,4.8
2024-03-27T05:49:39.828Z,4.9
2024-03-27T05:51:39.548Z,5.3
2024-03-27T05:53:39.246Z,4.7
2024-03-27T05:55:38.979Z,5.0
2024-03-27T05:57:38.617Z,5.1
2024-03-27T06:01:37.971Z,5.5
2024-03-27T06:03:38.977Z,5.2
2024-03-27T06:05:37.956Z,5.4
2024-03-27T06:07:37.471Z,4.9
2024-03-27T06:09:36.791Z,5.1
2024-03-27T06:11:36.466Z,4.6
2024-03-27T06:15:35.934Z,4.3
2024-03-27T06:17:35.653Z,4.5
2024-03-27T06:19:35.760Z,4.3
2024-03-27T06:21:34.937Z,3.9
2024-03-27T06:23:34.627Z,4.2
2024-03-27T06:25:34.521Z,4.0
2024-03-27T06:29:33.929Z,4.4
2024-03-27T06:31:33.424Z,4.1
2024-03-27T06:33:33.114Z,3.9
2024-03-27T06:43:31.865Z,3.7
2024-03-27T06:45:39.710Z,3.9
2024-03-27T06:47:32.685Z,3.2
2024-03-27T06:49:32.925Z,3.3
2024-03-27T06:51:30.325Z,3.2
2024-03-27T06:53:30.030Z,2.8
2024-03-27T06:55:30.195Z,2.9
2024-03-27T06:57:29.514Z,2.6
2024-03-27T06:59:29.280Z,3.0
2024-03-27T07:01:32.406Z,3.1
2024-03-27T07:03:28.663Z,3.0
2024-03-27T07:05:28.272Z,3.3
2024-03-27T07:07:28.303Z,3.4
2024-03-27T07:11:27.419Z,3.8
2024-03-27T07:13:27.071Z,3.9
2024-03-27T07:15:26.771Z,4.3
2024-03-27T07:17:27.026Z,4.5
2024-03-27T07:19:26.248Z,4.1
2024-03-27T07:21:25.988Z,4.4
2024-03-27T07:23:27.264Z,4.1
2024-03-27T07:29:24.734Z,4.5
2024-03-27T07:31:24.711Z,4.2
2024-03-27T07:33:24.414Z,3.9
2024-03-27T07:35:23.776Z,3.8
2024-03-27T07:37:23.544Z,3.9
2024-03-27T07:39:23.112Z,4.1
2024-03-27T07:41:22.990Z,3.8
2024-03-27T07:43:22.505Z,4.2
2024-03-27T07:45:22.644Z,3.7
2024-03-27T07:49:21.722Z,3.8
2024-03-27T07:51:21.541Z,3.6
2024-03-27T07:53:21.234Z,3.7
2024-03-27T07:55:21.155Z,3.2
2024-03-27T07:57:20.553Z,3.6
2024-03-27T07:59:20.267Z,3.7
2024-03-27T08:01:20.259Z,3.2
2024-03-27T08:03:19.801Z,2.8
2024-03-27T08:05:20.353Z,3.0
2024-03-27T08:07:19.284Z,3.2
2024-03-27T08:09:18.922Z,3.3
2024-03-27T08:11:18.881Z,3.1
2024-03-27T08:13:18.445Z,2.6
2024-03-27T08:15:18.525Z,2.8
2024-03-27T08:17:18.063Z,2.5
2024-03-27T08:19:17.719Z,2.6
2024-03-27T08:21:17.534Z,2.9
2024-03-27T08:23:17.303Z,3.0
2024-03-27T08:25:16.876Z,2.8
2024-03-27T08:29:16.349Z,2.6
2024-03-27T08:31:16.603Z,3.2
2024-03-27T08:33:15.942Z,2.9
2024-03-27T08:35:16.767Z,3.2
2024-03-27T08:37:15.356Z,2.9
2024-03-27T08:41:14.839Z,3.2
2024-03-27T08:51:13.957Z,3.4
2024-03-27T08:53:13.988Z,3.2
2024-03-27T08:55:14.681Z,3.1
2024-03-27T08:57:12.708Z,3.3
2024-03-27T09:01:14.416Z,3.2
2024-03-27T09:03:11.898Z,3.4
2024-03-27T09:05:14.056Z,3.5
2024-03-27T09:07:11.282Z,3.3
2024-03-27T09:09:11.105Z,3.8
2024-03-27T09:11:11.772Z,3.7
2024-03-27T09:13:10.762Z,3.5
2024-03-27T09:15:10.902Z,3.6
2024-03-27T09:19:09.738Z,3.9
2024-03-27T09:21:10.948Z,3.8
2024-03-27T09:23:09.220Z,3.5
2024-03-27T09:25:09.357Z,3.7
2024-03-27T09:27:09.006Z,3.9
2024-03-27T09:29:08.425Z,4.0
2024-03-27T09:35:09.329Z,4.2
2024-03-27T09:37:07.439Z,4.1
2024-03-27T09:39:07.704Z,3.6
2024-03-27T09:41:09.182Z,3.8
2024-03-27T09:45:07.267Z,4.1
2024-03-27T09:47:06.328Z,4.4
2024-03-27T09:49:09.626Z,4.3
2024-03-27T09:53:06.651Z,4.0
2024-03-27T09:55:07.861Z,3.9
2024-03-27T09:57:04.973Z,4.2
2024-03-27T09:59:05.189Z,4.4
2024-03-27T10:01:06.459Z,4.1
2024-03-27T10:03:05.061Z,3.9
2024-03-27T10:07:04.531Z,3.5
2024-03-27T10:09:04.834Z,3.7
2024-03-27T10:13:03.150Z,4.0
2024-03-27T10:15:05.118Z,4.2
2024-03-27T10:17:02.505Z,3.7
2024-03-27T10:19:02.102Z,4.0
2024-03-27T10:21:01.676Z,4.1
2024-03-27T10:25:02.334Z,4.0
2024-03-27T10:29:00.822Z,3.9
2024-03-27T10:31:02.548Z,4.3
2024-03-27T10:33:00.310Z,4.1
2024-03-27T10:35:06.380Z,4.0
2024-03-27T10:36:59.876Z,4.2
2024-03-27T10:39:04.259Z,4.0
2024-03-27T10:41:03.360Z,3.7
2024-03-27T10:43:03.971Z,4.0
2024-03-27T10:45:00.356Z,4.3
2024-03-27T10:46:58.579Z,4.1
2024-03-27T10:49:01.275Z,4.3
2024-03-27T10:53:00.173Z,4.4
2024-03-27T10:54:57.866Z,4.2
2024-03-27T10:58:57.096Z,4.0
2024-03-27T11:00:57.829Z,3.8
2024-03-27T11:02:57.930Z,4.0
2024-03-27T11:04:59.039Z,3.7
2024-03-27T11:06:57.152Z,3.9
2024-03-27T11:08:56.834Z,3.6
2024-03-27T11:11:02.695Z,3.7
2024-03-27T11:14:55.068Z,3.5
2024-03-27T11:16:59.352Z,3.6
2024-03-27T11:18:54.548Z,4.1
2024-03-27T11:20:55.897Z,3.3
2024-03-27T11:22:55.197Z,3.4
2024-03-27T11:24:54.219Z,3.6
2024-03-27T11:26:59.362Z,3.3
2024-03-27T11:28:54.088Z,3.6
2024-03-27T11:30:55.371Z,3.2
2024-03-27T11:32:54.247Z,3.1
2024-03-27T11:34:53.093Z,3.3
2024-03-27T11:38:52.914Z,3.2
2024-03-27T11:42:51.891Z,3.3
2024-03-27T11:44:51.650Z,2.8
2024-03-27T11:46:51.651Z,2.6
2024-03-27T11:48:51.286Z,2.3
2024-03-27T11:50:51.707Z,2.5
2024-03-27T11:52:51.628Z,2.4
2024-03-27T11:54:53.819Z,2.5
2024-03-27T11:56:50.940Z,2.7
2024-03-27T11:58:50.234Z,2.3
2024-03-27T12:00:50.959Z,2.5
2024-03-27T12:02:49.782Z,2.6
2024-03-27T12:06:49.837Z,2.5
2024-03-27T12:08:50.013Z,2.2
2024-03-27T12:10:49.117Z,2.6
2024-03-27T12:12:48.903Z,2.1
2024-03-27T12:14:48.734Z,2.3
2024-03-27T12:16:48.521Z,2.2
2024-03-27T12:20:48.418Z,2.1
2024-03-27T12:22:48.192Z,2.0
2024-03-27T12:24:50.726Z,2.2
2024-03-27T12:26:47.650Z,2.3
2024-03-27T12:28:51.278Z,2.2
2024-03-27T12:30:48.699Z,2.8
2024-03-27T12:32:47.304Z,2.4
2024-03-27T12:34:47.088Z,2.1
2024-03-27T12:42:46.407Z,2.0
2024-03-27T12:46:46.105Z,2.2
2024-03-27T12:48:45.817Z,2.3
2024-03-27T12:50:45.984Z,2.2
2024-03-27T12:56:45.297Z,2.0
2024-03-27T12:58:44.946Z,1.7
2024-03-27T13:00:46.417Z,1.8
2024-03-27T13:02:44.785Z,1.9
2024-03-27T13:04:44.437Z,2.0
2024-03-27T13:06:44.275Z,1.8
2024-03-27T13:08:44.339Z,1.7
2024-03-27T13:10:44.427Z,1.6
2024-03-27T13:12:47.638Z,1.8
2024-03-27T13:14:43.542Z,1.7
2024-03-27T13:16:43.401Z,1.6
2024-03-27T13:18:43.183Z,2.1
2024-03-27T13:20:43.001Z,1.7
2024-03-27T13:24:42.595Z,1.8
2024-03-27T13:26:42.353Z,2.1
2024-03-27T13:28:42.380Z,1.8
2024-03-27T13:32:41.882Z,1.9
2024-03-27T13:36:41.659Z,2.4
2024-03-27T13:38:41.186Z,2.0
2024-03-27T13:40:41.119Z,1.9
2024-03-27T13:42:40.793Z,1.7
2024-03-27T13:44:40.672Z,1.8
2024-03-27T13:46:40.393Z,1.9
2024-03-27T13:50:43.599Z,2.0
2024-03-27T13:54:42.051Z,1.6
2024-03-27T13:56:39.622Z,1.9
2024-03-27T13:58:39.118Z,1.6
2024-03-27T14:00:38.948Z,1.9
2024-03-27T14:02:39.058Z,1.8
2024-03-27T14:04:38.525Z,1.7
2024-03-27T14:08:38.434Z,1.8
2024-03-27T14:10:39.222Z,1.5
2024-03-27T14:12:37.809Z,1.4
2024-03-27T14:14:37.726Z,1.5
2024-03-27T14:16:37.425Z,1.4
2024-03-27T14:20:37.457Z,1.5
2024-03-27T14:24:36.850Z,1.4
2024-03-27T14:26:38.278Z,1.1
2024-03-27T14:28:36.375Z,1.0
2024-03-27T14:30:36.275Z,1.2
2024-03-27T14:34:35.773Z,1.4
2024-03-27T14:36:35.541Z,1.2
2024-03-27T14:38:35.347Z,1.1
2024-03-27T14:40:35.317Z,1.2
2024-03-27T14:42:35.785Z,1.3
2024-03-27T14:50:34.375Z,1.0
2024-03-27T14:52:34.484Z,1.2
2024-03-27T14:54:33.851Z,1.1
2024-03-27T14:56:33.850Z,1.0
2024-03-27T15:02:33.437Z,0.9
2024-03-27T15:06:32.749Z,1.1
2024-03-27T15:08:33.358Z,1.0
2024-03-27T15:10:32.503Z,1.1
2024-03-27T15:16:32.585Z,1.0
2024-03-27T15:18:31.794Z,1.2
2024-03-27T15:20:33.809Z,1.1
2024-03-27T15:24:31.018Z,0.9
2024-03-27T15:26:30.780Z,1.0
2024-03-27T15:28:30.667Z,1.1
2024-03-27T15:30:30.473Z,1.0
2024-03-27T15:34:30.030Z,1.2
2024-03-27T15:36:31.701Z,1.1
2024-03-27T15:40:30.119Z,1.2
2024-03-27T15:42:29.262Z,1.1
2024-03-27T15:46:28.729Z,1.0
2024-03-27T15:48:28.652Z,0.8
2024-03-27T15:50:28.351Z,1.0
2024-03-27T15:52:28.277Z,1.1
2024-03-27T15:54:29.254Z,0.9
2024-03-27T15:58:27.774Z,0.8
2024-03-27T16:00:27.690Z,1.1
2024-03-27T16:02:27.276Z,0.8
2024-03-27T16:04:33.174Z,0.9
2024-03-27T16:06:26.893Z,0.8
2024-03-27T16:08:26.743Z,0.7
2024-03-27T16:10:26.548Z,0.8
2024-03-27T16:12:26.271Z,0.9
2024-03-27T16:14:26.163Z,0.8
2024-03-27T16:16:25.944Z,1.2
2024-03-27T16:18:25.761Z,0.9
2024-03-27T16:24:25.325Z,0.8
2024-03-27T16:26:24.892Z,0.9
2024-03-27T16:28:32.571Z,0.7
2024-03-27T16:30:24.672Z,0.9
2024-03-27T16:34:23.929Z,0.8
2024-03-27T16:38:23.503Z,0.7
2024-03-27T16:40:23.699Z,0.9
2024-03-27T16:46:22.611Z,1.0
2024-03-27T16:48:22.406Z,0.9
2024-03-27T16:50:22.206Z,0.8
2024-03-27T16:52:22.054Z,1.0
2024-03-27T16:54:21.898Z,1.2
2024-03-27T16:56:21.568Z,0.9
2024-03-27T17:00:21.106Z,1.3
2024-03-27T17:02:21.222Z,0.9
2024-03-27T17:04:20.747Z,1.7
2024-03-27T17:06:21.526Z,1.8
2024-03-27T17:10:21.770Z,1.4
2024-03-27T17:12:20.075Z,0.8
2024-03-27T17:14:19.794Z,1.0
2024-03-27T17:18:19.341Z,1.1
2024-03-27T17:22:18.940Z,1.0
2024-03-27T17:24:18.694Z,1.2
2024-03-27T17:28:18.017Z,1.1
2024-03-27T17:34:17.461Z,0.8
2024-03-27T17:36:17.266Z,0.9
2024-03-27T17:38:16.877Z,1.0
2024-03-27T17:42:17.123Z,0.9
2024-03-27T17:44:15.983Z,1.0
2024-03-27T17:46:15.873Z,0.9
2024-03-27T17:48:15.506Z,1.1
2024-03-27T17:50:15.605Z,0.9
2024-03-27T17:52:14.978Z,1.2
2024-03-27T17:54:14.865Z,1.3
2024-03-27T17:56:14.718Z,1.2
2024-03-27T17:58:14.587Z,1.0
2024-03-27T18:00:15.120Z,1.1
2024-03-27T18:02:13.957Z,1.3
2024-03-27T18:04:13.629Z,1.2
2024-03-27T18:06:13.683Z,1.1
2024-03-27T18:08:12.992Z,1.3
2024-03-27T18:12:12.456Z,1.4
2024-03-27T18:14:13.914Z,1.2
2024-03-27T18:16:13.562Z,1.1
2024-03-27T18:18:11.607Z,1.2
2024-03-27T18:20:11.445Z,1.3
2024-03-27T18:22:11.320Z,1.2
2024-03-27T18:24:11.283Z,1.1
2024-03-27T18:26:10.608Z,1.3
2024-03-27T18:28:10.295Z,1.4
2024-03-27T18:30:10.846Z,1.3
2024-03-27T18:34:09.538Z,1.4
2024-03-27T18:36:09.378Z,1.5
2024-03-27T18:38:08.926Z,1.3
2024-03-27T18:40:10.139Z,1.4
2024-03-27T18:42:08.448Z,1.2
2024-03-27T18:44:08.619Z,1.4
2024-03-27T18:46:07.982Z,1.3
2024-03-27T18:50:10.972Z,1.4
2024-03-27T18:52:07.267Z,1.5
2024-03-27T18:56:07.441Z,1.3
2024-03-27T18:58:06.291Z,1.4
2024-03-27T19:02:06.664Z,1.6
2024-03-27T19:04:05.459Z,1.3
2024-03-27T19:06:05.323Z,1.1
2024-03-27T19:08:05.334Z,1.6
2024-03-27T19:10:05.313Z,1.5
2024-03-27T19:16:04.396Z,1.6
2024-03-27T19:18:03.964Z,1.4
2024-03-27T19:22:03.086Z,1.7
2024-03-27T19:24:04.822Z,1.9
2024-03-27T19:26:03.852Z,1.5
2024-03-27T19:28:04.849Z,1.8
2024-03-27T19:30:02.312Z,1.6
2024-03-27T19:32:01.554Z,1.7
2024-03-27T19:42:00.452Z,1.6
2024-03-27T19:43:59.808Z,1.5
2024-03-27T19:45:59.821Z,1.7
2024-03-27T19:49:58.885Z,1.8
2024-03-27T19:52:09.763Z,1.7
2024-03-27T19:53:58.436Z,1.4
2024-03-27T19:55:58.164Z,1.8
2024-03-27T19:57:57.901Z,1.9
2024-03-27T19:59:57.512Z,2.0
2024-03-27T20:01:57.674Z,2.2
2024-03-27T20:03:56.887Z,1.9
2024-03-27T20:05:56.692Z,1.8
2024-03-27T20:07:56.306Z,2.0
2024-03-27T20:11:55.744Z,2.5
2024-03-27T20:13:55.384Z,2.3
2024-03-27T20:15:56.245Z,2.0
2024-03-27T20:17:55.087Z,2.2
2024-03-27T20:19:54.527Z,2.3
2024-03-27T20:21:54.430Z,1.8
2024-03-27T20:23:53.946Z,2.1
2024-03-27T20:25:53.751Z,2.0
2024-03-27T20:27:53.341Z,2.1
2024-03-27T20:29:53.086Z,1.8
2024-03-27T20:31:52.809Z,2.0
2024-03-27T20:33:52.534Z,1.8
2024-03-27T20:35:52.519Z,2.1
2024-03-27T20:37:52.013Z,2.3
2024-03-27T20:39:51.654Z,1.9
2024-03-27T20:41:51.639Z,2.1
2024-03-27T20:43:54.204Z,2.2
2024-03-27T20:45:50.943Z,2.1
2024-03-27T20:47:50.473Z,1.9
2024-03-27T20:49:50.302Z,2.0
2024-03-27T20:51:50.063Z,2.1
2024-03-27T20:53:49.796Z,2.0
2024-03-27T21:01:48.392Z,2.2
2024-03-27T21:03:48.048Z,2.1
2024-03-27T21:05:47.855Z,2.3
2024-03-27T21:11:46.831Z,2.4
2024-03-27T21:13:47.898Z,2.3
2024-03-27T21:15:47.133Z,2.4
2024-03-27T21:17:46.134Z,2.2
2024-03-27T21:19:45.604Z,2.3
2024-03-27T21:21:45.298Z,2.2
2024-03-27T21:23:44.944Z,2.5
2024-03-27T21:25:44.664Z,2.1
2024-03-27T21:27:44.312Z,2.4
2024-03-27T21:29:44.123Z,1.9
2024-03-27T21:33:43.387Z,2.1
2024-03-27T21:35:43.213Z,2.0
2024-03-27T21:45:43.625Z,1.9
2024-03-27T21:47:41.210Z,2.1
2024-03-27T21:49:43.178Z,1.8
2024-03-27T21:51:40.831Z,1.7
2024-03-27T21:57:39.721Z,1.9
2024-03-27T21:59:39.443Z,1.8
2024-03-27T22:01:39.028Z,1.5
2024-03-27T22:05:39.679Z,1.8
2024-03-27T22:09:37.831Z,1.6
2024-03-27T22:13:37.168Z,1.7
2024-03-27T22:17:36.594Z,1.5
2024-03-27T22:19:36.476Z,1.6
2024-03-27T22:21:36.042Z,1.7
2024-03-27T22:23:35.651Z,1.6
2024-03-27T22:27:35.048Z,1.7
2024-03-27T22:29:34.805Z,1.6
2024-03-27T22:31:34.802Z,1.7
2024-03-27T22:35:33.787Z,1.6
2024-03-27T22:39:33.298Z,1.7
2024-03-27T22:43:32.840Z,1.9
2024-03-27T22:49:31.673Z,1.7
2024-03-27T22:51:31.327Z,2.0
2024-03-27T22:53:32.426Z,1.9
2024-03-27T22:55:30.795Z,1.7
2024-03-27T22:57:30.412Z,1.6
2024-03-27T22:59:29.960Z,1.7
2024-03-27T23:03:29.401Z,1.6
2024-03-27T23:05:29.002Z,1.8
2024-03-27T23:07:28.851Z,1.5
2024-03-27T23:09:28.390Z,1.6
2024-03-27T23:13:28.192Z,1.5
2024-03-27T23:15:28.403Z,1.6
2024-03-27T23:19:27.052Z,1.5
2024-03-27T23:21:26.751Z,1.7
2024-03-27T23:23:26.222Z,1.5
2024-03-27T23:25:26.273Z,1.4
2024-03-27T23:27:25.847Z,1.3
2024-03-27T23:29:25.326Z,1.6
2024-03-27T23:31:25.018Z,1.4
2024-03-27T23:33:24.696Z,1.7
2024-03-27T23:37:24.226Z,1.3
2024-03-27T23:39:23.806Z,1.6
2024-03-27T23:41:23.514Z,1.5
2024-03-27T23:43:23.312Z,1.3
2024-03-27T23:47:22.784Z,1.4
2024-03-27T23:55:21.390Z,1.5
2024-03-27T23:59:20.859Z,1.4
